Terminal Aerodrome Forecast
Issued by NWS Albany, NY

Home | Current Version | Previous Version | Text Only | Print | Product List | Glossary On
Versions: 1 2 3 4 5 6 7 8 9 10 11 12 13 14 15 16 17
000
FTUS41 KALY 251904 AAA
TAFGFL
TAF AMD
KGFL 251904Z 2519/2618 23004KT P6SM BKN200
     FM252200 20008KT 3SM -TSRA BR SCT020 OVC035CB
     FM260000 22005KT 5SM BR VCSH SCT050 SCT250
     FM260400 VRB03KT 3/4SM BR SCT003=

USA.gov is the U.S. government's official web portal to all federal, state and local government web resources and services.